createdAt,value
2022-08-19T00:00:00.334Z,0.045
2022-08-19T00:01:00.291Z,0.045
2022-08-19T00:02:00.524Z,0.045
2022-08-19T00:03:00.305Z,0.045
2022-08-19T00:04:00.309Z,0.045
2022-08-19T00:05:00.390Z,0.045
2022-08-19T00:06:00.602Z,0.045
2022-08-19T00:07:00.291Z,0.045
2022-08-19T00:08:00.309Z,0.045
2022-08-19T00:09:00.305Z,0.045
2022-08-19T00:10:00.299Z,0.045
2022-08-19T00:11:00.385Z,0.045
2022-08-19T00:12:00.330Z,0.045
2022-08-19T00:13:00.303Z,0.045
2022-08-19T00:14:00.334Z,0.045
2022-08-19T00:15:00.277Z,0.045
2022-08-19T00:16:00.291Z,0.045
2022-08-19T00:17:00.508Z,0.045
2022-08-19T00:18:00.275Z,0.045
2022-08-19T00:19:00.341Z,0.045
2022-08-19T00:20:00.408Z,0.045
2022-08-19T00:21:00.487Z,0.045
2022-08-19T00:22:00.306Z,0.045
2022-08-19T00:23:00.359Z,0.045
2022-08-19T00:24:00.349Z,0.045
2022-08-19T00:25:00.358Z,0.045
2022-08-19T00:26:00.272Z,0.045
2022-08-19T00:27:24.895Z,0.045
2022-08-19T00:28:00.414Z,0.045
2022-08-19T00:29:00.277Z,0.045
2022-08-19T00:30:00.285Z,0.045
2022-08-19T00:31:00.292Z,0.045
2022-08-19T00:32:00.286Z,0.045
2022-08-19T00:33:00.433Z,0.045
2022-08-19T00:34:00.281Z,0.045
2022-08-19T00:35:00.337Z,0.045
2022-08-19T00:36:00.298Z,0.045
2022-08-19T00:37:00.312Z,0.045
2022-08-19T00:38:00.313Z,0.045
2022-08-19T00:39:00.375Z,0.045
2022-08-19T00:40:00.483Z,0.045
2022-08-19T00:41:00.305Z,0.045
2022-08-19T00:42:00.300Z,0.045
2022-08-19T00:43:00.369Z,0.045
2022-08-19T00:44:00.374Z,0.045
2022-08-19T00:45:00.327Z,0.045
2022-08-19T00:46:00.324Z,0.045
2022-08-19T00:47:01.126Z,0.045
2022-08-19T00:48:00.310Z,0.045
2022-08-19T00:49:00.319Z,0.045
2022-08-19T00:50:00.444Z,0.045
2022-08-19T00:51:00.330Z,0.045
2022-08-19T00:52:00.300Z,0.090
2022-08-19T00:53:00.302Z,0.045
2022-08-19T00:54:00.333Z,0.045
2022-08-19T00:55:00.362Z,0.045
2022-08-19T00:56:00.483Z,0.045
2022-08-19T00:57:00.369Z,0.045
2022-08-19T00:58:00.365Z,0.045
2022-08-19T00:59:00.419Z,0.045
2022-08-19T01:00:02.311Z,0.045
2022-08-19T01:01:00.331Z,0.045
2022-08-19T01:02:00.555Z,0.045
2022-08-19T01:03:00.298Z,0.045
2022-08-19T01:04:00.297Z,0.045
2022-08-19T01:05:00.279Z,0.045
2022-08-19T01:06:00.288Z,0.045
2022-08-19T01:07:00.467Z,0.045
2022-08-19T01:08:00.470Z,0.045
2022-08-19T01:09:00.366Z,0.045
2022-08-19T01:10:00.345Z,0.045
2022-08-19T01:11:00.347Z,0.045
2022-08-19T01:12:00.308Z,0.045
2022-08-19T01:13:00.329Z,0.045
2022-08-19T01:14:00.474Z,0.045
2022-08-19T01:15:00.424Z,0.045
2022-08-19T01:16:00.299Z,0.045
2022-08-19T01:17:00.373Z,0.045
2022-08-19T01:18:00.331Z,0.045
2022-08-19T01:19:00.353Z,0.045
2022-08-19T01:20:00.399Z,0.045
2022-08-19T01:21:00.283Z,0.045
2022-08-19T01:22:00.279Z,0.045
2022-08-19T01:23:00.290Z,0.045
2022-08-19T01:24:00.297Z,0.045
2022-08-19T01:25:00.339Z,0.045
2022-08-19T01:26:00.410Z,0.045
2022-08-19T01:27:00.309Z,0.045
2022-08-19T01:28:01.672Z,0.045
2022-08-19T01:29:01.011Z,0.045
2022-08-19T01:30:00.275Z,0.045
2022-08-19T01:31:00.283Z,0.045
2022-08-19T01:32:00.392Z,0.045
2022-08-19T01:33:00.309Z,0.090
2022-08-19T01:34:00.291Z,0.045
2022-08-19T01:35:00.299Z,0.045
2022-08-19T01:36:00.311Z,0.045
2022-08-19T01:37:00.408Z,0.045
2022-08-19T01:38:00.280Z,0.090
2022-08-19T01:39:00.306Z,0.090
2022-08-19T01:40:00.404Z,0.090
2022-08-19T01:41:00.326Z,0.135
2022-08-19T01:42:00.349Z,0.135
2022-08-19T01:43:00.421Z,0.180
2022-08-19T01:44:13.664Z,0.180
2022-08-19T01:45:00.365Z,0.180
2022-08-19T01:46:00.381Z,0.225
2022-08-19T01:47:00.442Z,0.270
2022-08-19T01:48:02.157Z,0.315
2022-08-19T01:49:00.337Z,0.405
2022-08-19T01:50:00.273Z,0.450
2022-08-19T01:51:00.296Z,0.540
2022-08-19T01:52:00.337Z,0.675
2022-08-19T01:53:06.369Z,0.855
2022-08-19T01:54:00.301Z,1.080
2022-08-19T01:55:00.296Z,1.350
2022-08-19T01:56:00.298Z,1.620
2022-08-19T01:57:00.467Z,2.070
2022-08-19T01:58:00.307Z,2.520
2022-08-19T01:59:00.288Z,3.150
2022-08-19T02:00:00.352Z,3.960
2022-08-19T02:01:00.429Z,4.860
2022-08-19T02:02:00.306Z,5.940
2022-08-19T02:03:00.399Z,7.200
2022-08-19T02:04:00.309Z,8.550
2022-08-19T02:05:00.285Z,10.170
2022-08-19T02:06:00.306Z,11.970
2022-08-19T02:07:00.314Z,14.040
2022-08-19T02:08:00.294Z,16.200
2022-08-19T02:09:00.391Z,18.540
2022-08-19T02:10:00.327Z,21.420
2022-08-19T02:11:00.311Z,24.300
2022-08-19T02:12:00.314Z,27.360
2022-08-19T02:13:00.349Z,30.780
2022-08-19T02:14:00.293Z,34.560
2022-08-19T02:15:00.376Z,38.700
2022-08-19T02:16:00.380Z,42.840
2022-08-19T02:17:00.297Z,47.160
2022-08-19T02:18:00.279Z,51.840
2022-08-19T02:19:00.314Z,56.520
2022-08-19T02:20:00.319Z,61.560
2022-08-19T02:21:00.372Z,67.320
2022-08-19T02:22:00.289Z,73.080
2022-08-19T02:23:00.382Z,79.920
2022-08-19T02:24:00.352Z,87.840
2022-08-19T02:25:00.292Z,95.760
2022-08-19T02:26:00.317Z,105.120
2022-08-19T02:27:00.436Z,115.200
2022-08-19T02:28:00.288Z,125.280
2022-08-19T02:29:00.397Z,135.360
2022-08-19T02:30:00.313Z,146.160
2022-08-19T02:31:00.463Z,156.240
2022-08-19T02:32:00.314Z,167.760
2022-08-19T02:33:00.296Z,178.560
2022-08-19T02:34:00.301Z,190.080
2022-08-19T02:35:00.295Z,203.040
2022-08-19T02:36:00.300Z,216.000
2022-08-19T02:37:03.652Z,230.400
2022-08-19T02:38:00.410Z,244.800
2022-08-19T02:39:00.292Z,260.640
2022-08-19T02:40:00.405Z,277.920
2022-08-19T02:41:00.367Z,293.760
2022-08-19T02:42:00.302Z,311.040
2022-08-19T02:43:00.280Z,331.200
2022-08-19T02:44:26.477Z,351.360
2022-08-19T02:45:00.310Z,374.400
2022-08-19T02:46:00.388Z,400.320
2022-08-19T02:47:00.309Z,434.880
2022-08-19T02:48:00.301Z,469.440
2022-08-19T02:49:00.315Z,498.240
2022-08-19T02:50:00.301Z,529.920
2022-08-19T02:51:00.405Z,555.840
2022-08-19T02:52:00.305Z,581.760
2022-08-19T02:53:00.289Z,610.560
2022-08-19T02:54:00.297Z,636.480
2022-08-19T02:55:00.307Z,656.640
2022-08-19T02:56:00.309Z,702.720
2022-08-19T02:57:00.497Z,737.280
2022-08-19T02:58:00.376Z,766.080
2022-08-19T02:59:00.313Z,789.120
2022-08-19T03:00:00.333Z,812.160
2022-08-19T03:01:00.419Z,829.440
2022-08-19T03:02:00.323Z,840.960
2022-08-19T03:03:00.368Z,794.880
2022-08-19T03:04:00.341Z,794.880
2022-08-19T03:05:00.459Z,806.400
2022-08-19T03:06:00.331Z,835.200
2022-08-19T03:07:10.619Z,852.480
2022-08-19T03:08:00.311Z,869.760
2022-08-19T03:09:00.303Z,887.040
2022-08-19T03:10:00.309Z,910.080
2022-08-19T03:11:00.312Z,956.160
2022-08-19T03:12:00.303Z,996.480
2022-08-19T03:13:00.391Z,973.440
2022-08-19T03:14:00.297Z,1117.440
2022-08-19T03:15:00.344Z,1157.760
2022-08-19T03:16:00.400Z,1157.760
2022-08-19T03:17:00.373Z,1157.760
2022-08-19T03:18:00.311Z,1284.480
2022-08-19T03:19:00.391Z,1319.040
2022-08-19T03:20:00.322Z,1336.320
2022-08-19T03:21:00.312Z,1330.560
2022-08-19T03:22:00.311Z,1330.560
2022-08-19T03:23:00.294Z,1319.040
2022-08-19T03:24:00.377Z,1232.640
2022-08-19T03:25:00.369Z,1244.160
2022-08-19T03:26:15.972Z,1296.000
2022-08-19T03:27:00.291Z,1290.240
2022-08-19T03:28:00.292Z,1284.480
2022-08-19T03:29:00.373Z,1244.160
2022-08-19T03:30:00.355Z,1071.360
2022-08-19T03:31:00.376Z,956.160
2022-08-19T03:32:00.360Z,950.400
2022-08-19T03:33:00.315Z,1002.240
2022-08-19T03:34:00.308Z,1042.560
2022-08-19T03:35:00.306Z,1054.080
2022-08-19T03:36:00.290Z,1019.520
2022-08-19T03:37:00.391Z,1025.280
2022-08-19T03:38:00.370Z,1071.360
2022-08-19T03:39:00.295Z,1157.760
2022-08-19T03:40:00.536Z,1353.600
2022-08-19T03:41:00.279Z,1405.440
2022-08-19T03:42:29.261Z,1382.400
2022-08-19T03:43:00.482Z,1393.920
2022-08-19T03:44:00.399Z,1411.200
2022-08-19T03:45:00.280Z,1451.520
2022-08-19T03:46:00.279Z,1543.680
2022-08-19T03:47:00.324Z,1543.680
2022-08-19T03:48:00.279Z,1486.080
2022-08-19T03:49:00.307Z,1422.720
2022-08-19T03:50:00.381Z,1468.800
2022-08-19T03:51:00.374Z,1555.200
2022-08-19T03:52:00.422Z,1474.560
2022-08-19T03:53:00.398Z,1589.760
2022-08-19T03:54:00.304Z,1624.320
2022-08-19T03:55:00.381Z,1589.760
2022-08-19T03:56:00.369Z,1624.320
2022-08-19T03:57:00.290Z,1578.240
2022-08-19T03:58:00.299Z,1647.360
2022-08-19T03:59:00.469Z,1601.280
2022-08-19T04:00:12.548Z,1555.200
2022-08-19T04:01:00.414Z,1578.240
2022-08-19T04:02:00.279Z,1601.280
2022-08-19T04:03:00.888Z,1704.960
2022-08-19T04:04:00.306Z,1647.360
2022-08-19T04:05:00.294Z,1468.800
2022-08-19T04:06:00.302Z,1342.080
2022-08-19T04:07:00.425Z,1370.880
2022-08-19T04:08:00.648Z,1411.200
2022-08-19T04:09:00.316Z,1416.960
2022-08-19T04:10:00.386Z,1543.680
2022-08-19T04:11:00.395Z,1532.160
2022-08-19T04:12:00.319Z,1509.120
2022-08-19T04:13:00.383Z,1601.280
2022-08-19T04:14:00.405Z,1693.440
2022-08-19T04:15:00.289Z,1843.200
2022-08-19T04:16:00.443Z,1935.360
2022-08-19T04:17:00.346Z,2039.040
2022-08-19T04:18:00.371Z,2223.360
2022-08-19T04:19:00.483Z,2373.120
2022-08-19T04:20:00.300Z,2476.800
2022-08-19T04:21:00.314Z,2557.440
2022-08-19T04:22:00.303Z,2592.000
2022-08-19T04:23:00.309Z,2649.600
2022-08-19T04:24:00.295Z,2718.720
2022-08-19T04:25:00.381Z,2787.840
2022-08-19T04:26:00.303Z,2845.440
2022-08-19T04:27:00.325Z,2903.040
2022-08-19T04:28:00.738Z,2949.120
2022-08-19T04:29:00.279Z,2995.200
2022-08-19T04:30:00.382Z,3087.360
2022-08-19T04:31:00.298Z,3179.520
2022-08-19T04:32:00.319Z,3248.640
2022-08-19T04:33:00.311Z,3294.720
2022-08-19T04:34:00.289Z,3317.760
2022-08-19T04:35:02.330Z,3432.960
2022-08-19T04:36:00.361Z,3456.000
2022-08-19T04:37:00.311Z,3502.080
2022-08-19T04:38:00.296Z,3525.120
2022-08-19T04:39:00.299Z,3571.200
2022-08-19T04:40:02.656Z,3594.240
2022-08-19T04:41:00.352Z,3594.240
2022-08-19T04:42:00.398Z,3617.280
2022-08-19T04:43:00.460Z,3502.080
2022-08-19T04:44:04.280Z,3409.920
2022-08-19T04:45:00.297Z,3340.800
2022-08-19T04:46:01.099Z,3133.440
2022-08-19T04:47:00.342Z,2949.120
2022-08-19T04:48:26.336Z,2799.360
2022-08-19T04:49:00.298Z,2903.040
2022-08-19T04:50:00.360Z,3018.240
2022-08-19T04:51:00.387Z,3110.400
2022-08-19T04:52:00.422Z,3018.240
2022-08-19T04:53:00.296Z,3294.720
2022-08-19T04:54:00.366Z,3502.080
2022-08-19T04:55:00.293Z,4216.320
2022-08-19T04:56:00.299Z,6773.760
2022-08-19T04:57:00.293Z,4584.960
2022-08-19T04:58:00.402Z,7464.960
2022-08-19T04:59:00.283Z,8110.080
2022-08-19T05:00:00.469Z,6174.720
2022-08-19T05:01:00.355Z,7050.240
2022-08-19T05:02:00.472Z,7925.760
2022-08-19T05:03:00.532Z,6958.080
2022-08-19T05:04:00.297Z,4078.080
2022-08-19T05:05:00.549Z,6451.200
2022-08-19T05:06:00.390Z,3755.520
2022-08-19T05:07:01.100Z,3847.680
2022-08-19T05:08:00.331Z,2891.520
2022-08-19T05:09:00.435Z,2949.120
2022-08-19T05:10:00.355Z,2903.040
2022-08-19T05:11:00.280Z,4193.280
2022-08-19T05:12:00.426Z,4055.040
2022-08-19T05:13:00.448Z,3824.640
2022-08-19T05:14:00.447Z,3594.240
2022-08-19T05:15:00.442Z,4561.920
2022-08-19T05:16:00.366Z,3018.240
2022-08-19T05:17:25.611Z,8017.920
2022-08-19T05:18:00.329Z,3248.640
2022-08-19T05:19:00.584Z,3985.920
2022-08-19T05:20:00.333Z,10321.920
2022-08-19T05:21:00.297Z,10598.400
2022-08-19T05:22:00.279Z,10045.440
2022-08-19T05:23:00.310Z,9446.400
2022-08-19T05:24:00.373Z,8248.320
2022-08-19T05:25:12.080Z,8570.880
2022-08-19T05:26:00.300Z,8156.160
2022-08-19T05:27:00.290Z,8570.880
2022-08-19T05:28:00.372Z,8017.920
2022-08-19T05:29:00.308Z,6912.000
2022-08-19T05:30:00.302Z,8156.160
2022-08-19T05:31:00.658Z,6266.880
2022-08-19T05:32:00.294Z,7464.960
2022-08-19T05:33:00.311Z,7695.360
2022-08-19T05:34:00.372Z,6451.200
2022-08-19T05:35:00.321Z,4032.000
2022-08-19T05:36:00.318Z,3064.320
2022-08-19T05:37:00.386Z,3179.520
2022-08-19T05:38:00.299Z,2649.600
2022-08-19T05:39:00.383Z,2626.560
2022-08-19T05:40:00.503Z,2661.120
2022-08-19T05:41:00.337Z,2672.640
2022-08-19T05:42:00.331Z,2741.760
2022-08-19T05:43:00.414Z,2856.960
2022-08-19T05:44:00.293Z,3018.240
2022-08-19T05:45:00.295Z,3110.400
2022-08-19T05:46:00.313Z,3432.960
2022-08-19T05:47:00.309Z,4032.000
2022-08-19T05:48:00.312Z,3456.000
2022-08-19T05:49:00.524Z,4608.000
2022-08-19T05:50:00.318Z,4907.520
2022-08-19T05:51:00.349Z,5345.280
2022-08-19T05:52:00.364Z,4769.280
2022-08-19T05:53:00.395Z,3801.600
2022-08-19T05:54:00.346Z,3432.960
2022-08-19T05:55:00.392Z,3525.120
2022-08-19T05:56:00.302Z,3502.080
2022-08-19T05:57:00.303Z,3985.920
2022-08-19T05:58:00.417Z,4193.280
2022-08-19T05:59:00.402Z,5137.920
2022-08-19T06:00:00.386Z,6681.600
2022-08-19T06:01:00.515Z,6819.840
2022-08-19T06:02:00.301Z,6543.360
2022-08-19T06:03:00.322Z,5760.000
2022-08-19T06:04:00.309Z,4815.360
2022-08-19T06:05:00.303Z,3202.560
2022-08-19T06:06:00.312Z,2949.120
2022-08-19T06:07:00.390Z,2810.880
2022-08-19T06:08:00.295Z,2695.680
2022-08-19T06:09:00.310Z,2568.960
2022-08-19T06:10:01.392Z,2465.280
2022-08-19T06:11:00.308Z,2396.160
2022-08-19T06:12:00.299Z,2338.560
2022-08-19T06:13:00.394Z,2315.520
2022-08-19T06:14:00.557Z,2315.520
2022-08-19T06:15:00.825Z,2338.560
2022-08-19T06:16:00.283Z,2407.680
2022-08-19T06:17:03.685Z,2522.880
2022-08-19T06:18:00.308Z,2661.120
2022-08-19T06:19:00.397Z,2856.960
2022-08-19T06:20:00.612Z,3110.400
2022-08-19T06:21:00.309Z,3363.840
2022-08-19T06:22:00.310Z,3709.440
2022-08-19T06:23:00.301Z,4769.280
2022-08-19T06:24:00.334Z,4400.640
2022-08-19T06:25:00.414Z,4400.640
2022-08-19T06:26:00.403Z,3893.760
2022-08-19T06:27:01.446Z,3686.400
2022-08-19T06:28:15.443Z,3502.080
2022-08-19T06:29:00.344Z,3225.600
2022-08-19T06:30:00.378Z,3087.360
2022-08-19T06:31:00.401Z,2972.160
2022-08-19T06:32:00.347Z,2937.600
2022-08-19T06:33:00.360Z,2995.200
2022-08-19T06:34:00.280Z,3110.400
2022-08-19T06:35:00.315Z,3363.840
2022-08-19T06:36:00.445Z,4285.440
2022-08-19T06:37:00.317Z,4216.320
2022-08-19T06:38:00.304Z,5068.800
2022-08-19T06:39:00.341Z,5760.000
2022-08-19T06:40:00.439Z,7925.760
2022-08-19T06:41:00.291Z,9123.840
2022-08-19T06:42:00.391Z,6405.120
2022-08-19T06:43:00.820Z,7741.440
2022-08-19T06:44:00.295Z,5045.760
2022-08-19T06:45:00.331Z,4262.400
2022-08-19T06:46:00.301Z,4193.280
2022-08-19T06:47:00.299Z,4239.360
2022-08-19T06:48:00.394Z,4262.400
2022-08-19T06:49:00.283Z,4285.440
2022-08-19T06:50:01.260Z,4354.560
2022-08-19T06:51:00.295Z,4262.400
2022-08-19T06:52:00.309Z,4032.000
2022-08-19T06:53:04.353Z,4216.320
2022-08-19T06:54:00.470Z,3870.720
2022-08-19T06:55:00.340Z,3663.360
2022-08-19T06:56:00.308Z,3847.680
2022-08-19T06:57:00.350Z,3018.240
2022-08-19T06:58:00.486Z,2672.640
2022-08-19T06:59:00.388Z,2419.200
2022-08-19T07:00:00.400Z,2246.400
2022-08-19T07:01:00.321Z,2119.680
2022-08-19T07:02:00.301Z,2050.560
2022-08-19T07:03:04.501Z,2027.520
2022-08-19T07:04:00.385Z,2004.480
2022-08-19T07:05:00.355Z,2004.480
2022-08-19T07:06:00.307Z,2027.520
2022-08-19T07:07:00.379Z,2085.120
2022-08-19T07:08:04.719Z,2165.760
2022-08-19T07:09:00.414Z,2280.960
2022-08-19T07:10:02.040Z,2407.680
2022-08-19T07:11:00.297Z,2511.360
2022-08-19T07:12:00.422Z,2638.080
2022-08-19T07:13:00.414Z,2730.240
2022-08-19T07:14:00.280Z,2810.880
2022-08-19T07:15:00.292Z,2914.560
2022-08-19T07:16:00.694Z,2995.200
2022-08-19T07:17:00.297Z,3087.360
2022-08-19T07:18:00.390Z,3225.600
2022-08-19T07:19:00.302Z,3386.880
2022-08-19T07:20:05.644Z,3640.320
2022-08-19T07:21:00.286Z,3962.880
2022-08-19T07:22:00.294Z,4423.680
2022-08-19T07:23:00.286Z,5230.080
2022-08-19T07:24:02.928Z,6912.000
2022-08-19T07:25:00.318Z,11013.120
2022-08-19T07:26:00.329Z,11105.280
2022-08-19T07:27:00.314Z,13271.040
2022-08-19T07:28:01.645Z,5207.040
2022-08-19T07:29:00.372Z,4561.920
2022-08-19T07:30:00.461Z,4838.400
2022-08-19T07:31:00.359Z,8064.000
2022-08-19T07:32:00.301Z,7280.640
2022-08-19T07:33:00.399Z,8478.720
2022-08-19T07:34:00.395Z,12257.280
2022-08-19T07:35:00.422Z,9676.800
2022-08-19T07:36:00.450Z,9861.120
2022-08-19T07:37:00.356Z,13547.520
2022-08-19T07:38:00.318Z,16128.000
2022-08-19T07:39:00.387Z,10690.560
2022-08-19T07:40:00.522Z,5460.480
2022-08-19T07:41:00.338Z,4907.520
2022-08-19T07:42:00.379Z,4815.360
2022-08-19T07:43:00.314Z,4861.440
2022-08-19T07:44:00.323Z,4746.240
2022-08-19T07:45:00.660Z,4631.040
2022-08-19T07:46:00.552Z,4769.280
2022-08-19T07:47:00.357Z,5045.760
2022-08-19T07:48:00.780Z,4792.320
2022-08-19T07:49:00.445Z,4746.240
2022-08-19T07:50:00.492Z,5137.920
2022-08-19T07:51:00.514Z,4700.160
2022-08-19T07:52:00.591Z,4515.840
2022-08-19T07:53:00.438Z,4446.720
2022-08-19T07:54:00.311Z,4377.600
2022-08-19T07:55:00.348Z,4400.640
2022-08-19T07:56:00.295Z,4492.800
2022-08-19T07:57:00.278Z,4423.680
2022-08-19T07:58:00.304Z,4654.080
2022-08-19T07:59:00.657Z,5299.200
2022-08-19T08:00:00.357Z,5783.040
2022-08-19T08:01:00.283Z,5852.160
2022-08-19T08:02:00.355Z,6589.440
2022-08-19T08:03:00.322Z,12902.400
2022-08-19T08:04:00.300Z,14837.760
2022-08-19T08:05:00.387Z,5368.320
2022-08-19T08:06:00.298Z,5114.880
2022-08-19T08:07:00.405Z,6681.600
2022-08-19T08:08:00.310Z,4608.000
2022-08-19T08:09:00.286Z,4608.000
2022-08-19T08:10:00.710Z,4815.360
2022-08-19T08:11:00.412Z,5207.040
2022-08-19T08:12:05.052Z,5875.200
2022-08-19T08:13:09.278Z,11888.640
2022-08-19T08:14:04.548Z,6819.840
2022-08-19T08:15:00.339Z,5736.960
2022-08-19T08:16:00.371Z,6036.480
2022-08-19T08:17:00.404Z,5990.400
2022-08-19T08:18:00.352Z,16680.961
2022-08-19T08:19:00.406Z,18339.840
2022-08-19T08:20:00.316Z,12718.080
2022-08-19T08:21:00.293Z,9815.040
2022-08-19T08:22:00.414Z,7925.760
2022-08-19T08:23:00.392Z,6036.480
2022-08-19T08:25:00.306Z,6312.960
2022-08-19T08:26:00.307Z,6036.480
2022-08-19T08:27:00.312Z,5437.440
2022-08-19T08:28:00.318Z,8478.720
2022-08-19T08:29:00.382Z,13086.720
2022-08-19T08:30:00.290Z,13824.000
2022-08-19T08:31:00.316Z,15851.520
2022-08-19T08:32:00.449Z,14100.480
2022-08-19T08:33:00.300Z,10275.840
2022-08-19T08:34:00.382Z,12441.600
2022-08-19T08:35:00.369Z,15759.360
2022-08-19T08:36:00.290Z,15943.680
2022-08-19T08:37:00.654Z,15298.560
2022-08-19T08:38:00.396Z,15390.720
2022-08-19T08:39:00.346Z,15667.200
2022-08-19T08:40:00.474Z,15482.880
2022-08-19T08:41:00.285Z,15667.200
2022-08-19T08:42:00.285Z,15390.720
2022-08-19T08:44:00.314Z,15206.400
2022-08-19T08:45:00.577Z,15114.240
2022-08-19T08:46:00.291Z,14929.920
2022-08-19T08:47:00.316Z,14376.960
2022-08-19T08:48:00.403Z,13455.360
2022-08-19T08:49:00.316Z,11520.000
2022-08-19T08:50:00.336Z,13455.360
2022-08-19T08:51:00.342Z,13086.720
2022-08-19T08:52:00.638Z,13363.200
2022-08-19T08:53:00.395Z,13178.880
2022-08-19T08:54:00.462Z,12718.080
2022-08-19T08:55:00.294Z,11473.920
2022-08-19T08:56:00.364Z,12625.920
2022-08-19T08:57:00.294Z,12718.080
2022-08-19T08:58:00.314Z,12441.600
2022-08-19T08:59:00.303Z,13086.720
2022-08-19T09:00:00.514Z,13178.880
2022-08-19T09:01:00.293Z,12994.560
2022-08-19T09:02:00.444Z,10460.160
2022-08-19T09:03:00.383Z,8616.960
2022-08-19T09:04:03.101Z,9953.280
2022-08-19T09:05:00.427Z,7234.560
2022-08-19T09:06:00.317Z,5852.160
2022-08-19T09:07:00.436Z,6405.120
2022-08-19T09:08:00.380Z,8340.480
2022-08-19T09:09:00.302Z,7096.320
2022-08-19T09:10:00.310Z,6405.120
2022-08-19T09:11:00.307Z,5068.800
2022-08-19T09:12:00.289Z,4700.160
2022-08-19T09:13:00.312Z,4492.800
2022-08-19T09:14:00.399Z,4262.400
2022-08-19T09:15:00.309Z,4239.360
2022-08-19T09:16:00.297Z,4400.640
2022-08-19T09:17:00.304Z,4746.240
2022-08-19T09:18:00.296Z,5276.160
2022-08-19T09:19:00.279Z,5829.120
2022-08-19T09:20:00.464Z,5944.320
2022-08-19T09:21:00.316Z,6451.200
2022-08-19T09:22:00.361Z,6174.720
2022-08-19T09:23:00.326Z,6359.040
2022-08-19T09:24:00.333Z,6451.200
2022-08-19T09:25:00.391Z,5944.320
2022-08-19T09:26:00.372Z,5483.520
2022-08-19T09:27:00.299Z,5230.080
2022-08-19T09:28:02.538Z,5391.360
2022-08-19T09:29:00.295Z,4654.080
2022-08-19T09:30:00.303Z,4377.600
2022-08-19T09:31:00.380Z,4976.640
2022-08-19T09:32:00.319Z,5022.720
2022-08-19T09:33:00.312Z,4792.320
2022-08-19T09:34:00.310Z,4584.960
2022-08-19T09:35:00.379Z,4400.640
2022-08-19T09:36:00.332Z,4561.920
2022-08-19T09:37:00.539Z,4469.760
2022-08-19T09:38:00.662Z,4446.720
2022-08-19T09:39:00.315Z,4331.520
2022-08-19T09:40:00.429Z,4239.360
2022-08-19T09:41:00.447Z,4147.200
2022-08-19T09:42:00.383Z,4078.080
2022-08-19T09:43:00.445Z,3962.880
2022-08-19T09:44:00.295Z,3893.760
2022-08-19T09:45:00.583Z,3870.720
2022-08-19T09:46:00.575Z,3801.600
2022-08-19T09:47:00.338Z,3778.560
2022-08-19T09:48:00.348Z,3755.520
2022-08-19T09:49:06.079Z,3709.440
2022-08-19T09:50:00.426Z,3686.400
2022-08-19T09:51:00.301Z,3663.360
2022-08-19T09:52:00.499Z,3617.280
2022-08-19T09:53:00.451Z,3571.200
2022-08-19T09:54:00.341Z,3548.160
2022-08-19T09:55:00.566Z,3525.120
2022-08-19T09:56:00.306Z,3548.160
2022-08-19T09:57:00.575Z,3502.080
2022-08-19T09:58:00.347Z,3479.040
2022-08-19T09:59:00.499Z,3479.040
2022-08-19T10:00:00.349Z,3456.000
2022-08-19T10:01:00.381Z,3432.960
2022-08-19T10:02:03.636Z,3432.960
2022-08-19T10:03:00.922Z,3409.920
2022-08-19T10:04:00.297Z,3409.920
2022-08-19T10:05:00.765Z,3409.920
2022-08-19T10:06:00.333Z,3386.880
2022-08-19T10:07:00.354Z,3386.880
2022-08-19T10:08:00.327Z,3386.880
2022-08-19T10:09:00.364Z,3386.880
2022-08-19T10:10:00.389Z,3363.840
2022-08-19T10:11:00.295Z,3363.840
2022-08-19T10:12:00.406Z,3363.840
2022-08-19T10:13:00.309Z,3363.840
2022-08-19T10:14:00.273Z,3363.840
2022-08-19T10:15:00.289Z,3363.840
2022-08-19T10:16:00.395Z,3502.080
2022-08-19T10:17:00.390Z,3386.880
2022-08-19T10:18:00.284Z,3409.920
2022-08-19T10:19:00.316Z,3386.880
2022-08-19T10:20:00.329Z,3386.880
2022-08-19T10:21:00.289Z,3409.920
2022-08-19T10:22:00.693Z,3409.920
2022-08-19T10:23:00.297Z,3456.000
2022-08-19T10:24:00.343Z,3502.080
2022-08-19T10:25:00.299Z,3502.080
2022-08-19T10:26:00.469Z,3548.160
2022-08-19T10:27:00.448Z,3571.200
2022-08-19T10:28:00.397Z,3594.240
2022-08-19T10:29:00.285Z,3617.280
2022-08-19T10:30:00.648Z,3640.320
2022-08-19T10:31:00.308Z,3640.320
2022-08-19T10:32:02.917Z,3663.360
2022-08-19T10:33:00.318Z,3686.400
2022-08-19T10:34:00.380Z,3617.280
2022-08-19T10:35:00.305Z,3709.440
2022-08-19T10:36:00.302Z,3801.600
2022-08-19T10:37:00.910Z,3801.600
2022-08-19T10:38:01.939Z,3824.640
2022-08-19T10:39:00.304Z,3778.560
2022-08-19T10:40:00.594Z,3824.640
2022-08-19T10:41:00.280Z,4078.080
2022-08-19T10:42:00.513Z,4285.440
2022-08-19T10:43:00.300Z,4423.680
2022-08-19T10:44:03.974Z,4469.760
2022-08-19T10:45:00.355Z,4492.800
2022-08-19T10:46:00.374Z,4285.440
2022-08-19T10:47:00.340Z,3962.880
2022-08-19T10:48:00.403Z,4078.080
2022-08-19T10:49:00.315Z,4101.120
2022-08-19T10:50:00.391Z,3663.360
2022-08-19T10:51:00.352Z,3732.480
2022-08-19T10:52:00.537Z,4032.000
2022-08-19T10:53:00.369Z,3801.600
2022-08-19T10:54:00.379Z,3571.200
2022-08-19T10:55:05.087Z,3778.560
2022-08-19T10:56:00.336Z,3847.680
2022-08-19T10:57:00.430Z,3824.640
2022-08-19T10:58:02.656Z,3916.800
2022-08-19T10:59:00.278Z,3893.760
2022-08-19T11:00:00.300Z,3870.720
2022-08-19T11:01:00.394Z,3916.800
2022-08-19T11:02:00.284Z,3916.800
2022-08-19T11:03:00.303Z,3824.640
2022-08-19T11:04:00.406Z,3870.720
2022-08-19T11:05:04.840Z,3870.720
2022-08-19T11:06:00.288Z,3893.760
2022-08-19T11:07:00.284Z,3847.680
2022-08-19T11:08:00.279Z,3870.720
2022-08-19T11:09:00.310Z,3893.760
2022-08-19T11:10:00.383Z,3847.680
2022-08-19T11:11:00.316Z,3801.600
2022-08-19T11:12:00.399Z,3755.520
2022-08-19T11:13:00.355Z,3732.480
2022-08-19T11:14:00.314Z,3686.400
2022-08-19T11:15:00.298Z,3640.320
2022-08-19T11:16:05.112Z,3594.240
2022-08-19T11:17:00.367Z,3502.080
2022-08-19T11:18:00.341Z,3432.960
2022-08-19T11:19:00.340Z,3363.840
2022-08-19T11:20:00.294Z,3317.760
2022-08-19T11:21:00.288Z,3271.680
2022-08-19T11:22:00.462Z,3248.640
2022-08-19T11:23:00.381Z,3248.640
2022-08-19T11:24:00.311Z,3202.560
2022-08-19T11:25:00.294Z,3202.560
2022-08-19T11:26:00.377Z,3225.600
2022-08-19T11:27:00.423Z,3202.560
2022-08-19T11:28:00.282Z,3179.520
2022-08-19T11:29:00.291Z,3041.280
2022-08-19T11:30:00.309Z,3202.560
2022-08-19T11:31:00.395Z,3156.480
2022-08-19T11:32:00.313Z,3156.480
2022-08-19T11:33:00.305Z,3156.480
2022-08-19T11:34:00.345Z,3133.440
2022-08-19T11:35:00.314Z,3156.480
2022-08-19T11:36:00.340Z,3133.440
2022-08-19T11:37:00.412Z,3156.480
2022-08-19T11:38:00.301Z,3156.480
2022-08-19T11:39:00.281Z,3179.520
2022-08-19T11:40:00.462Z,3202.560
2022-08-19T11:41:00.304Z,3225.600
2022-08-19T11:42:00.640Z,3110.400
2022-08-19T11:43:00.371Z,3156.480
2022-08-19T11:44:00.326Z,3225.600
2022-08-19T11:45:00.319Z,3225.600
2022-08-19T11:46:00.324Z,3225.600
2022-08-19T11:47:00.356Z,3202.560
2022-08-19T11:48:00.330Z,3248.640
2022-08-19T11:49:00.423Z,3271.680
2022-08-19T11:50:00.321Z,3271.680
2022-08-19T11:51:00.313Z,3271.680
2022-08-19T11:52:00.287Z,3248.640
2022-08-19T11:53:00.366Z,3225.600
2022-08-19T11:54:00.325Z,3225.600
2022-08-19T11:55:00.483Z,2949.120
2022-08-19T11:56:00.413Z,2592.000
2022-08-19T11:57:00.452Z,3294.720
2022-08-19T11:58:00.318Z,3202.560